createdAt,value
2014-11-20T18:07:15.202Z,447
2014-11-20T18:13:15.684Z,441
2014-11-20T18:19:16.182Z,443
2014-11-20T18:26:16.745Z,447
2014-11-20T18:32:17.259Z,442
2014-11-20T18:39:17.775Z,439
2014-11-20T18:46:18.323Z,437
2014-11-20T18:51:18.757Z,436
2014-11-20T18:56:19.221Z,435
2014-11-20T19:02:19.735Z,434
2014-11-20T19:08:20.405Z,430
2014-11-20T19:13:20.651Z,433
2014-11-20T19:19:21.524Z,429
2014-11-20T19:24:21.864Z,432
2014-11-20T19:31:22.379Z,432
2014-11-20T19:37:23.142Z,429
2014-11-20T19:42:23.592Z,426
2014-11-20T19:47:24.274Z,430
2014-11-20T19:52:24.615Z,428
2014-11-20T19:59:25.302Z,429
2014-11-20T20:04:25.752Z,427
2014-11-20T20:10:26.235Z,427
2014-11-20T20:16:27.482Z,426
2014-11-20T20:21:27.400Z,439
2014-11-20T20:27:27.899Z,438
2014-11-20T20:33:28.380Z,433
2014-11-20T20:39:28.880Z,438
2014-11-20T20:45:29.378Z,440
2014-11-20T20:50:29.811Z,440
2014-11-20T20:55:30.275Z,440
2014-11-20T21:48:15.178Z,1
2014-11-20T21:53:15.612Z,410
2014-11-20T22:00:16.160Z,0
2014-11-20T22:07:16.707Z,0
2014-11-20T22:13:17.190Z,0
2014-11-20T22:18:17.639Z,0
2014-11-20T22:24:18.137Z,0
2014-11-20T22:31:18.685Z,0
2014-11-20T22:37:19.183Z,0
2014-11-20T22:43:19.665Z,0
2014-11-20T22:49:20.163Z,0
2014-11-20T22:55:20.646Z,0
2014-11-20T23:02:21.194Z,0
2014-11-20T23:09:21.741Z,0
2014-11-20T23:14:22.174Z,0
2014-11-20T23:20:22.673Z,0
2014-11-20T23:26:23.154Z,0
2014-11-20T23:31:23.604Z,0
2014-11-20T23:38:24.152Z,0
2014-11-20T23:44:24.634Z,0
